Flight Track Log - Related Links

Times and Time Zones

All times are in EDT time to prevent confusion due to time zone crossing. See the N229CN flight status page for this flight to view local times or setup timezone preferences in your user account.

Time Position Orientation Groundspeed Altitude Reporting Facility
EDT Latitude Longitude Course Direction KTS MPH feet Rate Location/Type
Tue 07:58:17 AM 44.5339 -73.1944 136° Southeast 247 284 5,100  Level Boston Center
Tue 07:59:17 AM 44.5222 -73.0689 97° East 306 352 8,800 3,400 Climbing Boston Center
Tue 08:00:17 AM 44.4517 -72.9956 143° Southeast 285 328 11,900 2,850 Climbing Boston Center
Tue 08:01:17 AM 44.3769 -72.9281 147° Southeast 301 346 14,500 2,400 Climbing Boston Center
Tue 08:02:17 AM 44.2981 -72.8606 149° Southeast 328 377 16,700 2,150 Climbing Boston Center
Tue 08:03:00 AM 44.1802 -72.8902 136° Southeast  Level FlightAware Approximate
Tue 08:03:17 AM 44.2192 -72.7906 148° Southeast 339 390 18,800  Level Boston Center
Tue 08:04:17 AM 44.1319 -72.7119 147° Southeast 359 413 19,000 100 Climbing Boston Center
Tue 08:05:17 AM 44.0383 -72.6308 148° Southeast 386 444 19,000  Level Boston Center
Tue 08:06:17 AM 43.9486 -72.5553 149° Southeast 386 444 19,000  Level Boston Center
Tue 08:07:17 AM 43.8717 -72.4861 147° Southeast 379 436 19,000  Level Boston Center
Tue 08:08:17 AM 43.7842 -72.4114 148° Southeast 379 436 19,000  Level Boston Center
Tue 08:09:17 AM 43.6967 -72.3311 146° Southeast 374 430 19,000  Level Boston Center
Tue 08:10:17 AM 43.6069 -72.2567 149° Southeast 374 430 19,000  Level Boston Center
Tue 08:11:17 AM 43.5192 -72.1794 147° Southeast 374 430 19,000  Level Boston Center
Tue 08:12:17 AM 43.4314 -72.1056 149° Southeast 374 430 19,000  Level Boston Center
Tue 08:13:17 AM 43.3333 -72.0261 149° Southeast 374 430 19,000 -650 Level Boston Center
Tue 08:14:17 AM 43.2539 -71.9556 147° Southeast 379 436 17,700 -2,000 Descending Boston Center
Tue 08:15:17 AM 43.1597 -71.8794 149° Southeast 374 430 15,000 -2,500 Descending Boston Center
Tue 08:16:17 AM 43.0844 -71.8403 159° South 339 390 12,700 -2,500 Descending Boston Center
Tue 08:17:17 AM 42.9925 -71.7900 158° South 323 372 10,000 -2,550 Descending Boston Center
Tue 08:18:17 AM 42.9236 -71.7567 160° South 306 352 7,600 -2,500 Descending Boston Center
Tue 08:19:17 AM 42.8483 -71.7181 159° South 284 327 5,000 -1,800 Descending Boston Center
Tue 08:20:17 AM 42.7939 -71.6875 158° South 250 288 4,000 -500 Descending Boston Center
Tue 08:21:17 AM 42.7250 -71.6572 162° South 243 280 4,000  Level Boston Center
Tue 08:22:17 AM 42.6831 -71.6381 161° South 238 274 4,000 -400 Level Boston Center
Tue 08:23:17 AM 42.6142 -71.6078 162° South 208 239 3,200 -500 Descending Boston Center
Tue 08:24:17 AM 42.5639 -71.5858 162° South 203 234 3,000 -109 Descending Boston Center
Tue 08:25:07 AM 42.5333 -71.5667 155° Southeast 180 207 3,000 -466 Level KA90
Tue 08:26:13 AM 42.5000 -71.5000 124° Southeast 176 203 2,100 -567 Descending KA90
Tue 08:27:14 AM 42.4833 -71.4500 114° Southeast 145 167 1,800 -300 Descending KA90
Tue 08:28:13 AM 42.4833 -71.4000 90° East 141 162 1,500 -422 Descending KA90
Tue 08:29:22 AM 42.4833 -71.3500 90° East 114 131 900 -524 Descending KA90
Tue 08:30:19 AM 42.4667 -71.3167 124° Southeast 99 114 400 -526 Descending KA90
Tue 08:32:00 AM 42.4667 -71.2833 126° Southeast  Level FlightAware Approximate

Login

Don't have an account? Register now (free) for customized features, flight alerts, and more!